KFNL/FNL METAR and TAF weather

Enter ICAO airport designator
Station Type Date Time Source
KFNL METAR 2018/12/13 19:56 UTC NOAA

KFNL 131956Z AUTO 15008KT 10SM CLR 05/M14 A3020 RMK AO2 SLP239 T00501139 PNO $


Station Type Date Time Source
KFNL Decoded METAR 2018/12/13 19:56 UTC NOAA

Fort Collins/Loveland, Fort Collins-Loveland Municipal Airport, CO, United States (KFNL) 40-27N 105-01W
Dec 13, 2018 - 02:56 PM EST / 2018.12.13 1956 UTC
Wind: from the SSE (150 degrees) at 9 MPH (8 KT):0
Visibility: 10 mile(s):0
Sky conditions: clear
Temperature: 41.0 F (5.0 C)
Dew Point: 7.0 F (-13.9 C)
Relative Humidity: 23%
Pressure (altimeter): 30.2 in. Hg (1022 hPa)
ob: KFNL 131956Z AUTO 15008KT 10SM CLR 05/M14 A3020 RMK AO2 SLP239 T00501139 PNO
cycle: 20

Station Type Date Time Source
KFNL TAF UTC NOAA

Error!


Example: see airport list